Time;durP1;ratioP1;P1;durP2;ratioP2;P2;SDS_P1;SDS_P2;PMS_P1;PMS_P2;Temp;Humidity;BMP_temperature;BMP_pressure;BME280_temperature;BME280_humidity;BME280_pressure;Samples;Min_cycle;Max_cycle;Signal;HPM_P1;HPM_P2
2020/12/28 07:36:55;;;;;;;33.47;19.92;;;1.00;84.60;;;;;;5960507;22;7292256;-68
2020/12/28 07:39:37;;;;;;;32.15;19.67;;;1.00;84.90;;;;;;6195052;22;20382;-72
2020/12/28 07:42:07;;;;;;;32.38;20.30;;;1.00;84.50;;;;;;6175946;22;20248;-68
2020/12/28 07:44:35;;;;;;;29.08;19.10;;;1.00;84.40;;;;;;6191993;22;20557;-62
2020/12/28 07:47:06;;;;;;;29.27;18.70;;;1.00;84.00;;;;;;6159212;22;20334;-71
2020/12/28 07:49:44;;;;;;;33.00;19.52;;;1.00;84.20;;;;;;6193461;22;20442;-66
2020/12/28 07:52:21;;;;;;;29.27;19.88;;;1.00;83.90;;;;;;6190666;22;20057;-64
2020/12/28 07:55:30;;;;;;;32.97;19.77;;;1.00;83.80;;;;;;6193747;22;20393;-69
2020/12/28 07:58:04;;;;;;;29.90;19.52;;;1.00;83.60;;;;;;6046518;23;20427;-67
2020/12/28 08:01:09;;;;;;;32.15;19.90;;;1.00;83.90;;;;;;6045176;23;20069;-66
2020/12/28 08:04:18;;;;;;;;;;;;;;;;;;;;;
2020/12/28 08:06:46;;;;;;;29.58;19.45;;;1.00;83.80;;;;;;6184035;22;20296;-63
2020/12/28 08:09:33;;;;;;;28.48;18.58;;;1.00;83.70;;;;;;6190241;22;20282;-71
2020/12/28 08:12:05;;;;;;;28.48;18.13;;;1.00;84.20;;;;;;6183138;22;20030;-67
2020/12/28 08:14:43;;;;;;;;;;;;;;;;;;;;;
2020/12/28 08:17:20;;;;;;;31.17;18.65;;;1.10;84.40;;;;;;6189322;22;20055;-67
2020/12/28 08:23:11;;;;;;;27.95;17.38;;;1.30;81.70;;;;;;6132102;22;20034;-65
2020/12/28 08:25:47;;;;;;;28.85;16.77;;;1.20;82.70;;;;;;6190266;22;20483;-66
2020/12/28 08:28:20;;;;;;;28.65;17.33;;;1.20;83.40;;;;;;6189524;22;20481;-68
2020/12/28 08:30:58;;;;;;;30.85;18.27;;;1.30;82.90;;;;;;6191240;22;20074;-64
2020/12/28 08:33:27;;;;;;;32.95;18.52;;;1.30;82.20;;;;;;6165804;22;20111;-67
2020/12/28 08:35:57;;;;;;;28.52;18.38;;;1.20;82.80;;;;;;6161066;22;20315;-63
2020/12/28 08:39:08;;;;;;;;;;;;;;;;;;;;;
2020/12/28 08:42:10;;;;;;;31.17;17.23;;;1.40;82.80;;;;;;6173578;22;20268;-67
2020/12/28 08:44:57;;;;;;;27.33;17.25;;;1.70;82.00;;;;;;6166404;22;20303;-67
2020/12/28 08:47:29;;;;;;;27.27;18.15;;;1.70;83.10;;;;;;6194393;22;20351;-67
2020/12/28 08:50:07;;;;;;;29.63;17.85;;;1.90;83.30;;;;;;6198869;22;20625;-67
2020/12/28 08:52:38;;;;;;;27.38;17.98;;;2.00;83.10;;;;;;6197939;22;20283;-68
2020/12/28 08:58:02;;;;;;;27.38;17.35;;;2.20;81.60;;;;;;6181240;22;20016;-67
2020/12/28 09:00:48;;;;;;;26.40;17.63;;;2.40;81.60;;;;;;6166153;22;20117;-68
2020/12/28 09:03:16;;;;;;;28.30;16.50;;;2.50;80.30;;;;;;6196589;22;20334;-63
2020/12/28 09:06:12;;;;;;;30.88;18.83;;;2.50;80.30;;;;;;6170282;22;20008;-68
2020/12/28 09:08:43;;;;;;;27.50;17.48;;;2.40;78.80;;;;;;6190248;22;20287;-66
2020/12/28 09:11:08;;;;;;;27.33;18.13;;;2.30;79.60;;;;;;6197239;22;20039;-66
2020/12/28 09:13:49;;;;;;;34.50;20.00;;;2.30;79.50;;;;;;6168719;22;20069;-68
2020/12/28 09:16:26;;;;;;;29.48;19.38;;;2.40;78.80;;;;;;6199928;22;20460;-68
2020/12/28 09:19:05;;;;;;;32.03;19.73;;;2.40;78.70;;;;;;6193219;22;20431;-65
2020/12/28 09:21:52;;;;;;;;;;;;;;;;;;;;;
2020/12/28 09:24:23;;;;;;;32.00;18.52;;;2.50;78.90;;;;;;6198369;22;20394;-68
2020/12/28 09:26:57;;;;;;;35.05;21.00;;;2.50;78.70;;;;;;6194236;22;20041;-68
2020/12/28 09:29:28;;;;;;;31.38;19.30;;;2.50;78.40;;;;;;6194500;22;20378;-65
2020/12/28 09:32:06;;;;;;;30.10;19.02;;;2.50;78.60;;;;;;6194375;22;20399;-68
2020/12/28 09:34:42;;;;;;;;;;;;;;;;;;;;;
2020/12/28 09:37:11;;;;;;;30.75;19.63;;;2.50;78.10;;;;;;6184565;22;20422;-67
2020/12/28 09:39:40;;;;;;;40.65;20.75;;;2.30;77.90;;;;;;6192309;22;20317;-71
2020/12/28 09:42:06;;;;;;;30.77;20.35;;;2.20;77.50;;;;;;6197628;22;20354;-66
2020/12/28 09:44:44;;;;;;;39.22;21.38;;;2.10;78.10;;;;;;6192059;22;20406;-66
2020/12/28 09:47:12;;;;;;;30.30;19.92;;;2.10;78.80;;;;;;6198981;22;20475;-68
2020/12/28 09:49:58;;;;;;;33.15;20.30;;;2.00;78.80;;;;;;6196799;22;20012;-65
2020/12/28 09:52:33;;;;;;;30.27;18.80;;;2.00;78.50;;;;;;6195589;22;20318;-74
2020/12/28 09:55:12;;;;;;;31.50;19.02;;;2.00;78.30;;;;;;6193171;22;20106;-71
2020/12/28 09:57:48;;;;;;;29.60;18.20;;;1.90;78.10;;;;;;6190352;22;20065;-67
2020/12/28 10:00:18;;;;;;;27.85;17.95;;;1.80;79.20;;;;;;6191844;22;20554;-67
2020/12/28 10:02:50;;;;;;;29.73;18.83;;;1.80;80.30;;;;;;6189790;22;20414;-68
2020/12/28 10:05:26;;;;;;;33.13;19.25;;;1.90;80.20;;;;;;6188367;22;20491;-68
2020/12/28 10:07:54;;;;;;;27.58;17.90;;;1.90;80.10;;;;;;6218481;22;20423;-65
2020/12/28 10:10:35;;;;;;;30.65;19.98;;;1.80;80.00;;;;;;6192112;22;20435;-67
2020/12/28 10:13:33;;;;;;;31.42;19.45;;;1.90;80.00;;;;;;6187735;22;20390;-69
2020/12/28 10:15:58;;;;;;;32.53;20.05;;;1.80;79.80;;;;;;6192704;22;20339;-68
2020/12/28 10:18:24;;;;;;;28.20;17.70;;;1.70;79.80;;;;;;6188255;22;20011;-68
2020/12/28 10:21:00;;;;;;;30.67;19.15;;;1.70;80.70;;;;;;6190560;22;20354;-65
2020/12/28 10:23:46;;;;;;;32.53;18.77;;;1.70;80.40;;;;;;6191514;22;20408;-66
2020/12/28 10:26:47;;;;;;;30.20;19.10;;;1.60;80.60;;;;;;6184709;22;20034;-68
2020/12/28 10:29:23;;;;;;;28.50;17.83;;;1.60;81.00;;;;;;6189597;22;20300;-68
2020/12/28 10:31:57;;;;;;;33.22;19.50;;;1.60;81.20;;;;;;6181799;22;20027;-64
2020/12/28 10:34:35;;;;;;;30.73;17.38;;;1.60;81.50;;;;;;6187051;22;20169;-63
2020/12/28 10:37:10;;;;;;;30.83;17.73;;;1.60;81.80;;;;;;6188215;22;20580;-67
2020/12/28 10:39:51;;;;;;;31.58;19.35;;;1.60;81.80;;;;;;6184991;22;20311;-67
2020/12/28 10:42:22;;;;;;;31.63;19.13;;;1.60;81.80;;;;;;6185571;22;20521;-66
2020/12/28 10:44:48;;;;;;;35.47;19.58;;;1.60;82.00;;;;;;6183342;22;20362;-70
2020/12/28 10:47:20;;;;;;;29.50;18.15;;;1.60;81.30;;;;;;6188136;22;20281;-66
2020/12/28 10:50:15;;;;;;;;;;;;;;;;;;;;;
2020/12/28 10:52:44;;;;;;;30.30;17.70;;;1.60;81.90;;;;;;6187950;22;20404;-68
